sensor_id;sensor_type;location;lat;lon;timestamp;pressure;altitude;pressure_sealevel;temperature
74321;BMP280;62738;45.772;4.804;2022-11-23T00:01:22;98563.91;;;7.21
74321;BMP280;62738;45.772;4.804;2022-11-23T00:03:50;98559.94;;;7.14
74321;BMP280;62738;45.772;4.804;2022-11-23T00:06:18;98556.41;;;6.97
74321;BMP280;62738;45.772;4.804;2022-11-23T00:08:47;98560.72;;;7.07
74321;BMP280;62738;45.772;4.804;2022-11-23T00:11:14;98556.13;;;6.68
74321;BMP280;62738;45.772;4.804;2022-11-23T00:13:41;98551.63;;;6.48
74321;BMP280;62738;45.772;4.804;2022-11-23T00:16:13;98539.78;;;6.37
74321;BMP280;62738;45.772;4.804;2022-11-23T00:18:40;98547.66;;;6.41
74321;BMP280;62738;45.772;4.804;2022-11-23T00:21:08;98544.00;;;6.63
74321;BMP280;62738;45.772;4.804;2022-11-23T00:23:35;98549.16;;;6.84
74321;BMP280;62738;45.772;4.804;2022-11-23T00:26:03;98543.25;;;6.88
74321;BMP280;62738;45.772;4.804;2022-11-23T00:28:30;98523.19;;;6.70
74321;BMP280;62738;45.772;4.804;2022-11-23T00:30:57;98538.13;;;6.67
74321;BMP280;62738;45.772;4.804;2022-11-23T00:33:23;98534.28;;;6.37
74321;BMP280;62738;45.772;4.804;2022-11-23T00:36:01;98521.31;;;6.55
74321;BMP280;62738;45.772;4.804;2022-11-23T00:38:27;98532.59;;;6.67
74321;BMP280;62738;45.772;4.804;2022-11-23T00:41:05;98532.31;;;6.55
74321;BMP280;62738;45.772;4.804;2022-11-23T00:43:33;98527.88;;;6.60
74321;BMP280;62738;45.772;4.804;2022-11-23T00:46:20;98519.56;;;7.27
74321;BMP280;62738;45.772;4.804;2022-11-23T00:48:49;98519.03;;;7.03
74321;BMP280;62738;45.772;4.804;2022-11-23T00:51:21;98514.97;;;6.87
74321;BMP280;62738;45.772;4.804;2022-11-23T00:53:49;98512.53;;;7.08
74321;BMP280;62738;45.772;4.804;2022-11-23T00:56:16;98514.00;;;6.92
74321;BMP280;62738;45.772;4.804;2022-11-23T00:58:51;98521.16;;;6.95
74321;BMP280;62738;45.772;4.804;2022-11-23T01:01:20;98513.69;;;7.05
74321;BMP280;62738;45.772;4.804;2022-11-23T01:03:50;98519.09;;;6.96
74321;BMP280;62738;45.772;4.804;2022-11-23T01:06:19;98516.22;;;6.94
74321;BMP280;62738;45.772;4.804;2022-11-23T01:08:55;98510.84;;;7.13
74321;BMP280;62738;45.772;4.804;2022-11-23T01:11:24;98504.69;;;7.39
74321;BMP280;62738;45.772;4.804;2022-11-23T01:13:51;98513.53;;;7.03
74321;BMP280;62738;45.772;4.804;2022-11-23T01:16:20;98513.13;;;7.07
74321;BMP280;62738;45.772;4.804;2022-11-23T01:18:58;98512.97;;;7.05
74321;BMP280;62738;45.772;4.804;2022-11-23T01:21:26;98513.78;;;7.15
74321;BMP280;62738;45.772;4.804;2022-11-23T01:23:54;98502.84;;;7.07
74321;BMP280;62738;45.772;4.804;2022-11-23T01:26:22;98485.34;;;7.30
74321;BMP280;62738;45.772;4.804;2022-11-23T01:28:49;98483.84;;;7.11
74321;BMP280;62738;45.772;4.804;2022-11-23T01:31:18;98489.13;;;7.17
74321;BMP280;62738;45.772;4.804;2022-11-23T01:33:45;98480.38;;;7.28
74321;BMP280;62738;45.772;4.804;2022-11-23T01:36:18;98483.19;;;6.86
74321;BMP280;62738;45.772;4.804;2022-11-23T01:38:48;98463.56;;;6.82
74321;BMP280;62738;45.772;4.804;2022-11-23T01:41:20;98459.53;;;7.18
74321;BMP280;62738;45.772;4.804;2022-11-23T01:43:48;98470.56;;;7.18
74321;BMP280;62738;45.772;4.804;2022-11-23T01:46:14;98467.13;;;7.09
74321;BMP280;62738;45.772;4.804;2022-11-23T01:49:01;98459.22;;;7.31
74321;BMP280;62738;45.772;4.804;2022-11-23T01:51:40;98459.84;;;7.22
74321;BMP280;62738;45.772;4.804;2022-11-23T01:54:14;98450.56;;;7.44
74321;BMP280;62738;45.772;4.804;2022-11-23T01:56:52;98452.38;;;7.14
74321;BMP280;62738;45.772;4.804;2022-11-23T01:59:20;98455.16;;;6.97
74321;BMP280;62738;45.772;4.804;2022-11-23T02:04:20;98465.75;;;6.84
74321;BMP280;62738;45.772;4.804;2022-11-23T02:06:48;98459.34;;;6.81
74321;BMP280;62738;45.772;4.804;2022-11-23T02:09:16;98445.56;;;6.81
74321;BMP280;62738;45.772;4.804;2022-11-23T02:11:43;98448.31;;;6.81
74321;BMP280;62738;45.772;4.804;2022-11-23T02:14:10;98444.28;;;6.99
74321;BMP280;62738;45.772;4.804;2022-11-23T02:16:37;98450.06;;;6.94
74321;BMP280;62738;45.772;4.804;2022-11-23T02:19:08;98458.72;;;6.90
74321;BMP280;62738;45.772;4.804;2022-11-23T02:21:39;98460.66;;;7.32
74321;BMP280;62738;45.772;4.804;2022-11-23T02:24:11;98452.28;;;7.39
74321;BMP280;62738;45.772;4.804;2022-11-23T02:26:40;98448.66;;;7.20
74321;BMP280;62738;45.772;4.804;2022-11-23T02:31:42;98431.50;;;6.94
74321;BMP280;62738;45.772;4.804;2022-11-23T02:34:11;98416.63;;;7.07
74321;BMP280;62738;45.772;4.804;2022-11-23T02:36:43;98415.09;;;6.96
74321;BMP280;62738;45.772;4.804;2022-11-23T02:41:54;98397.22;;;7.14
74321;BMP280;62738;45.772;4.804;2022-11-23T02:44:28;98391.38;;;7.10
74321;BMP280;62738;45.772;4.804;2022-11-23T02:46:57;98388.00;;;6.85
74321;BMP280;62738;45.772;4.804;2022-11-23T02:49:24;98378.94;;;6.92
74321;BMP280;62738;45.772;4.804;2022-11-23T02:52:08;98370.38;;;7.15
74321;BMP280;62738;45.772;4.804;2022-11-23T02:54:35;98357.97;;;7.24
74321;BMP280;62738;45.772;4.804;2022-11-23T02:57:02;98356.50;;;7.23
74321;BMP280;62738;45.772;4.804;2022-11-23T02:59:29;98356.63;;;6.98
74321;BMP280;62738;45.772;4.804;2022-11-23T03:01:59;98347.63;;;6.97
74321;BMP280;62738;45.772;4.804;2022-11-23T03:04:25;98354.13;;;6.92
74321;BMP280;62738;45.772;4.804;2022-11-23T03:06:53;98353.91;;;6.81
74321;BMP280;62738;45.772;4.804;2022-11-23T03:09:20;98357.78;;;6.95
74321;BMP280;62738;45.772;4.804;2022-11-23T03:11:47;98342.19;;;7.07
74321;BMP280;62738;45.772;4.804;2022-11-23T03:14:15;98358.63;;;7.14
74321;BMP280;62738;45.772;4.804;2022-11-23T03:16:41;98371.31;;;7.00
74321;BMP280;62738;45.772;4.804;2022-11-23T03:19:08;98405.69;;;6.99
74321;BMP280;62738;45.772;4.804;2022-11-23T03:21:35;98396.38;;;6.95
74321;BMP280;62738;45.772;4.804;2022-11-23T03:24:02;98399.69;;;6.93
74321;BMP280;62738;45.772;4.804;2022-11-23T03:26:29;98393.94;;;6.82
74321;BMP280;62738;45.772;4.804;2022-11-23T03:28:56;98391.56;;;6.61
74321;BMP280;62738;45.772;4.804;2022-11-23T03:31:22;98380.06;;;6.55
74321;BMP280;62738;45.772;4.804;2022-11-23T03:33:49;98353.81;;;6.54
74321;BMP280;62738;45.772;4.804;2022-11-23T03:36:16;98333.25;;;6.55
74321;BMP280;62738;45.772;4.804;2022-11-23T03:38:42;98319.47;;;6.55
74321;BMP280;62738;45.772;4.804;2022-11-23T03:41:09;98310.59;;;6.73
74321;BMP280;62738;45.772;4.804;2022-11-23T03:43:35;98312.56;;;6.63
74321;BMP280;62738;45.772;4.804;2022-11-23T03:46:02;98321.88;;;6.51
74321;BMP280;62738;45.772;4.804;2022-11-23T03:48:29;98343.03;;;6.48
74321;BMP280;62738;45.772;4.804;2022-11-23T03:50:55;98342.31;;;6.65
74321;BMP280;62738;45.772;4.804;2022-11-23T03:53:22;98342.13;;;6.46
74321;BMP280;62738;45.772;4.804;2022-11-23T03:55:49;98351.53;;;6.43
74321;BMP280;62738;45.772;4.804;2022-11-23T03:58:15;98338.56;;;6.35
74321;BMP280;62738;45.772;4.804;2022-11-23T04:00:42;98324.00;;;6.60
74321;BMP280;62738;45.772;4.804;2022-11-23T04:03:09;98318.31;;;6.58
74321;BMP280;62738;45.772;4.804;2022-11-23T04:05:35;98318.69;;;6.89
74321;BMP280;62738;45.772;4.804;2022-11-23T04:08:02;98317.72;;;6.76
74321;BMP280;62738;45.772;4.804;2022-11-23T04:10:29;98314.47;;;6.88
74321;BMP280;62738;45.772;4.804;2022-11-23T04:12:56;98302.28;;;6.64
74321;BMP280;62738;45.772;4.804;2022-11-23T04:15:23;98330.84;;;6.86
74321;BMP280;62738;45.772;4.804;2022-11-23T04:17:49;98343.44;;;6.62
74321;BMP280;62738;45.772;4.804;2022-11-23T04:20:16;98350.56;;;6.48
74321;BMP280;62738;45.772;4.804;2022-11-23T04:22:42;98346.84;;;6.53
74321;BMP280;62738;45.772;4.804;2022-11-23T04:25:09;98340.38;;;6.40
74321;BMP280;62738;45.772;4.804;2022-11-23T04:27:36;98335.09;;;6.35
74321;BMP280;62738;45.772;4.804;2022-11-23T04:30:03;98324.69;;;6.09
74321;BMP280;62738;45.772;4.804;2022-11-23T04:32:30;98319.03;;;6.24
74321;BMP280;62738;45.772;4.804;2022-11-23T04:34:57;98315.41;;;6.38
74321;BMP280;62738;45.772;4.804;2022-11-23T04:37:24;98321.56;;;6.29
74321;BMP280;62738;45.772;4.804;2022-11-23T04:39:50;98320.97;;;6.31
74321;BMP280;62738;45.772;4.804;2022-11-23T04:42:17;98321.56;;;6.29
74321;BMP280;62738;45.772;4.804;2022-11-23T04:44:43;98321.66;;;6.39
74321;BMP280;62738;45.772;4.804;2022-11-23T04:47:11;98330.47;;;6.55
74321;BMP280;62738;45.772;4.804;2022-11-23T04:49:38;98347.91;;;6.40
74321;BMP280;62738;45.772;4.804;2022-11-23T04:52:04;98354.78;;;7.00
74321;BMP280;62738;45.772;4.804;2022-11-23T04:54:31;98348.28;;;6.88
74321;BMP280;62738;45.772;4.804;2022-11-23T04:56:58;98344.72;;;6.78
74321;BMP280;62738;45.772;4.804;2022-11-23T04:59:25;98335.31;;;6.98
74321;BMP280;62738;45.772;4.804;2022-11-23T05:01:52;98322.75;;;6.88
74321;BMP280;62738;45.772;4.804;2022-11-23T05:04:19;98314.09;;;6.74
74321;BMP280;62738;45.772;4.804;2022-11-23T05:06:45;98309.13;;;6.72
74321;BMP280;62738;45.772;4.804;2022-11-23T05:09:12;98297.28;;;6.97
74321;BMP280;62738;45.772;4.804;2022-11-23T05:11:40;98301.19;;;6.94
74321;BMP280;62738;45.772;4.804;2022-11-23T05:14:07;98317.50;;;6.82
74321;BMP280;62738;45.772;4.804;2022-11-23T05:16:33;98321.41;;;6.62
74321;BMP280;62738;45.772;4.804;2022-11-23T05:19:00;98306.41;;;6.55
74321;BMP280;62738;45.772;4.804;2022-11-23T05:21:27;98303.09;;;6.57
74321;BMP280;62738;45.772;4.804;2022-11-23T05:23:53;98303.56;;;6.80
74321;BMP280;62738;45.772;4.804;2022-11-23T05:26:20;98326.06;;;6.86
74321;BMP280;62738;45.772;4.804;2022-11-23T05:28:47;98333.38;;;6.74
74321;BMP280;62738;45.772;4.804;2022-11-23T05:31:13;98326.91;;;6.62
74321;BMP280;62738;45.772;4.804;2022-11-23T05:33:40;98320.50;;;6.94
74321;BMP280;62738;45.772;4.804;2022-11-23T05:36:07;98322.72;;;7.32
74321;BMP280;62738;45.772;4.804;2022-11-23T05:38:34;98322.72;;;7.05
74321;BMP280;62738;45.772;4.804;2022-11-23T05:41:01;98320.06;;;6.97
74321;BMP280;62738;45.772;4.804;2022-11-23T05:43:27;98324.84;;;6.97
74321;BMP280;62738;45.772;4.804;2022-11-23T05:45:57;98328.47;;;7.16
74321;BMP280;62738;45.772;4.804;2022-11-23T05:48:24;98323.25;;;7.21
74321;BMP280;62738;45.772;4.804;2022-11-23T05:50:51;98325.75;;;7.26
74321;BMP280;62738;45.772;4.804;2022-11-23T05:53:17;98327.09;;;7.08
74321;BMP280;62738;45.772;4.804;2022-11-23T05:55:44;98320.19;;;7.16
74321;BMP280;62738;45.772;4.804;2022-11-23T05:58:11;98312.28;;;6.86
74321;BMP280;62738;45.772;4.804;2022-11-23T06:00:38;98313.88;;;7.06
74321;BMP280;62738;45.772;4.804;2022-11-23T06:03:04;98321.25;;;7.04
74321;BMP280;62738;45.772;4.804;2022-11-23T06:05:31;98328.06;;;7.03
74321;BMP280;62738;45.772;4.804;2022-11-23T06:07:58;98326.72;;;6.77
74321;BMP280;62738;45.772;4.804;2022-11-23T06:10:25;98325.06;;;7.08
74321;BMP280;62738;45.772;4.804;2022-11-23T06:12:51;98327.50;;;7.04
74321;BMP280;62738;45.772;4.804;2022-11-23T06:15:18;98334.13;;;7.19
74321;BMP280;62738;45.772;4.804;2022-11-23T06:17:45;98334.88;;;7.19
74321;BMP280;62738;45.772;4.804;2022-11-23T06:20:11;98332.13;;;7.19
74321;BMP280;62738;45.772;4.804;2022-11-23T06:22:38;98320.06;;;7.51
74321;BMP280;62738;45.772;4.804;2022-11-23T06:25:05;98315.50;;;7.36
74321;BMP280;62738;45.772;4.804;2022-11-23T06:27:32;98314.34;;;7.39
74321;BMP280;62738;45.772;4.804;2022-11-23T06:29:58;98313.88;;;7.33
74321;BMP280;62738;45.772;4.804;2022-11-23T06:32:25;98310.75;;;7.46
74321;BMP280;62738;45.772;4.804;2022-11-23T06:34:52;98315.53;;;7.46
74321;BMP280;62738;45.772;4.804;2022-11-23T06:37:24;98308.25;;;7.41
74321;BMP280;62738;45.772;4.804;2022-11-23T06:39:51;98280.88;;;7.52
74321;BMP280;62738;45.772;4.804;2022-11-23T06:42:17;98281.66;;;7.72
74321;BMP280;62738;45.772;4.804;2022-11-23T06:45:05;98274.28;;;7.84
74321;BMP280;62738;45.772;4.804;2022-11-23T06:47:31;98284.34;;;7.99
74321;BMP280;62738;45.772;4.804;2022-11-23T06:49:58;98289.25;;;7.91
74321;BMP280;62738;45.772;4.804;2022-11-23T06:52:25;98298.94;;;7.73
74321;BMP280;62738;45.772;4.804;2022-11-23T06:54:51;98307.38;;;7.75
74321;BMP280;62738;45.772;4.804;2022-11-23T06:57:18;98320.34;;;7.91
74321;BMP280;62738;45.772;4.804;2022-11-23T06:59:45;98322.78;;;7.78
74321;BMP280;62738;45.772;4.804;2022-11-23T07:02:11;98323.63;;;7.71
74321;BMP280;62738;45.772;4.804;2022-11-23T07:04:38;98340.38;;;7.82
74321;BMP280;62738;45.772;4.804;2022-11-23T07:07:08;98351.78;;;8.06
74321;BMP280;62738;45.772;4.804;2022-11-23T07:09:35;98355.25;;;7.97
74321;BMP280;62738;45.772;4.804;2022-11-23T07:12:01;98348.84;;;8.04
74321;BMP280;62738;45.772;4.804;2022-11-23T07:14:28;98351.50;;;8.21
74321;BMP280;62738;45.772;4.804;2022-11-23T07:16:55;98340.06;;;8.24
74321;BMP280;62738;45.772;4.804;2022-11-23T07:19:21;98333.34;;;8.27
74321;BMP280;62738;45.772;4.804;2022-11-23T07:21:48;98338.31;;;8.19
74321;BMP280;62738;45.772;4.804;2022-11-23T07:24:15;98339.44;;;8.16
74321;BMP280;62738;45.772;4.804;2022-11-23T07:26:41;98347.91;;;8.18
74321;BMP280;62738;45.772;4.804;2022-11-23T07:29:09;98337.78;;;7.84
74321;BMP280;62738;45.772;4.804;2022-11-23T07:31:35;98334.59;;;7.98
74321;BMP280;62738;45.772;4.804;2022-11-23T07:34:02;98339.59;;;8.09
74321;BMP280;62738;45.772;4.804;2022-11-23T07:36:28;98345.25;;;8.20
74321;BMP280;62738;45.772;4.804;2022-11-23T07:38:55;98343.50;;;8.25
74321;BMP280;62738;45.772;4.804;2022-11-23T07:41:22;98352.41;;;8.33
74321;BMP280;62738;45.772;4.804;2022-11-23T07:43:48;98356.47;;;8.22
74321;BMP280;62738;45.772;4.804;2022-11-23T07:46:15;98371.13;;;8.25
74321;BMP280;62738;45.772;4.804;2022-11-23T07:48:41;98377.84;;;8.22
74321;BMP280;62738;45.772;4.804;2022-11-23T07:51:08;98370.16;;;8.40
74321;BMP280;62738;45.772;4.804;2022-11-23T07:53:35;98368.97;;;8.33
74321;BMP280;62738;45.772;4.804;2022-11-23T07:56:01;98368.41;;;8.44
74321;BMP280;62738;45.772;4.804;2022-11-23T07:58:29;98364.38;;;8.55
74321;BMP280;62738;45.772;4.804;2022-11-23T08:00:58;98354.31;;;8.40
74321;BMP280;62738;45.772;4.804;2022-11-23T08:03:24;98361.00;;;8.66
74321;BMP280;62738;45.772;4.804;2022-11-23T08:05:54;98372.94;;;8.59
74321;BMP280;62738;45.772;4.804;2022-11-23T08:08:21;98371.47;;;8.58
74321;BMP280;62738;45.772;4.804;2022-11-23T08:10:47;98368.88;;;8.69
74321;BMP280;62738;45.772;4.804;2022-11-23T08:13:19;98381.09;;;8.76
74321;BMP280;62738;45.772;4.804;2022-11-23T08:15:46;98378.63;;;8.70
74321;BMP280;62738;45.772;4.804;2022-11-23T08:18:20;98378.31;;;8.86
74321;BMP280;62738;45.772;4.804;2022-11-23T08:20:46;98382.69;;;8.69
74321;BMP280;62738;45.772;4.804;2022-11-23T08:23:13;98386.78;;;8.78
74321;BMP280;62738;45.772;4.804;2022-11-23T08:25:40;98391.13;;;8.71
74321;BMP280;62738;45.772;4.804;2022-11-23T08:28:07;98388.22;;;8.69
74321;BMP280;62738;45.772;4.804;2022-11-23T08:30:34;98390.84;;;8.87
74321;BMP280;62738;45.772;4.804;2022-11-23T08:33:05;98403.06;;;8.93
74321;BMP280;62738;45.772;4.804;2022-11-23T08:35:33;98391.72;;;8.89
74321;BMP280;62738;45.772;4.804;2022-11-23T08:37:59;98389.38;;;8.86
74321;BMP280;62738;45.772;4.804;2022-11-23T08:40:26;98397.66;;;9.05
74321;BMP280;62738;45.772;4.804;2022-11-23T08:42:53;98406.97;;;9.19
74321;BMP280;62738;45.772;4.804;2022-11-23T08:45:20;98405.69;;;9.01
74321;BMP280;62738;45.772;4.804;2022-11-23T08:47:47;98411.06;;;8.99
74321;BMP280;62738;45.772;4.804;2022-11-23T08:50:13;98412.66;;;9.02
74321;BMP280;62738;45.772;4.804;2022-11-23T08:52:40;98407.25;;;9.23
74321;BMP280;62738;45.772;4.804;2022-11-23T08:55:07;98402.00;;;9.18
74321;BMP280;62738;45.772;4.804;2022-11-23T08:57:34;98407.84;;;9.12
74321;BMP280;62738;45.772;4.804;2022-11-23T09:00:01;98404.78;;;9.18
74321;BMP280;62738;45.772;4.804;2022-11-23T09:02:27;98410.44;;;9.20
74321;BMP280;62738;45.772;4.804;2022-11-23T09:04:54;98413.53;;;9.04
74321;BMP280;62738;45.772;4.804;2022-11-23T09:07:20;98409.75;;;9.19
74321;BMP280;62738;45.772;4.804;2022-11-23T09:09:47;98412.63;;;9.21
74321;BMP280;62738;45.772;4.804;2022-11-23T09:12:14;98419.47;;;9.20
74321;BMP280;62738;45.772;4.804;2022-11-23T09:14:41;98416.69;;;9.20
74321;BMP280;62738;45.772;4.804;2022-11-23T09:17:07;98426.75;;;9.25
74321;BMP280;62738;45.772;4.804;2022-11-23T09:19:34;98417.31;;;9.19
74321;BMP280;62738;45.772;4.804;2022-11-23T09:22:01;98411.63;;;9.26
74321;BMP280;62738;45.772;4.804;2022-11-23T09:24:28;98411.78;;;9.28
74321;BMP280;62738;45.772;4.804;2022-11-23T09:26:55;98404.31;;;9.31
74321;BMP280;62738;45.772;4.804;2022-11-23T09:29:21;98412.78;;;9.33
74321;BMP280;62738;45.772;4.804;2022-11-23T09:31:48;98414.81;;;9.32
74321;BMP280;62738;45.772;4.804;2022-11-23T09:34:15;98427.63;;;9.28
74321;BMP280;62738;45.772;4.804;2022-11-23T09:36:41;98429.13;;;9.00
74321;BMP280;62738;45.772;4.804;2022-11-23T09:39:08;98427.53;;;9.16
74321;BMP280;62738;45.772;4.804;2022-11-23T09:47:41;98431.13;;;9.28
74321;BMP280;62738;45.772;4.804;2022-11-23T09:52:50;98421.91;;;9.55
74321;BMP280;62738;45.772;4.804;2022-11-23T09:57:56;98426.19;;;9.36
74321;BMP280;62738;45.772;4.804;2022-11-23T10:00:26;98423.91;;;9.64
74321;BMP280;62738;45.772;4.804;2022-11-23T10:02:56;98423.63;;;9.60
74321;BMP280;62738;45.772;4.804;2022-11-23T10:05:25;98423.97;;;9.85
74321;BMP280;62738;45.772;4.804;2022-11-23T10:08:24;98427.63;;;9.78
74321;BMP280;62738;45.772;4.804;2022-11-23T10:13:39;98421.84;;;9.74
74321;BMP280;62738;45.772;4.804;2022-11-23T10:16:36;98420.97;;;10.02
74321;BMP280;62738;45.772;4.804;2022-11-23T10:22:18;98409.84;;;10.12
74321;BMP280;62738;45.772;4.804;2022-11-23T10:24:49;98412.84;;;10.25
74321;BMP280;62738;45.772;4.804;2022-11-23T10:27:21;98418.56;;;10.18
74321;BMP280;62738;45.772;4.804;2022-11-23T10:29:49;98418.72;;;10.10
74321;BMP280;62738;45.772;4.804;2022-11-23T10:32:29;98419.81;;;10.26
74321;BMP280;62738;45.772;4.804;2022-11-23T10:35:07;98420.56;;;10.27
74321;BMP280;62738;45.772;4.804;2022-11-23T10:37:38;98412.78;;;10.56
74321;BMP280;62738;45.772;4.804;2022-11-23T10:42:44;98392.69;;;10.67
74321;BMP280;62738;45.772;4.804;2022-11-23T10:45:21;98393.50;;;10.91
74321;BMP280;62738;45.772;4.804;2022-11-23T10:47:57;98378.16;;;10.79
74321;BMP280;62738;45.772;4.804;2022-11-23T10:50:35;98377.34;;;10.99
74321;BMP280;62738;45.772;4.804;2022-11-23T10:53:22;98378.75;;;10.77
74321;BMP280;62738;45.772;4.804;2022-11-23T10:55:53;98378.66;;;10.87
74321;BMP280;62738;45.772;4.804;2022-11-23T10:58:27;98367.69;;;10.56
74321;BMP280;62738;45.772;4.804;2022-11-23T11:01:06;98371.41;;;10.82
74321;BMP280;62738;45.772;4.804;2022-11-23T11:03:36;98392.44;;;10.63
74321;BMP280;62738;45.772;4.804;2022-11-23T11:06:03;98388.50;;;10.66
74321;BMP280;62738;45.772;4.804;2022-11-23T11:08:48;98386.31;;;10.65
74321;BMP280;62738;45.772;4.804;2022-11-23T11:13:48;98370.06;;;11.16
74321;BMP280;62738;45.772;4.804;2022-11-23T11:18:50;98388.97;;;11.07
74321;BMP280;62738;45.772;4.804;2022-11-23T11:21:33;98383.25;;;11.27
74321;BMP280;62738;45.772;4.804;2022-11-23T11:24:06;98409.81;;;11.41
74321;BMP280;62738;45.772;4.804;2022-11-23T11:26:48;98429.47;;;11.45
74321;BMP280;62738;45.772;4.804;2022-11-23T11:29:30;98427.53;;;11.25
74321;BMP280;62738;45.772;4.804;2022-11-23T11:32:16;98426.06;;;11.24
74321;BMP280;62738;45.772;4.804;2022-11-23T11:37:43;98419.75;;;11.12
74321;BMP280;62738;45.772;4.804;2022-11-23T11:40:46;98413.63;;;11.13
74321;BMP280;62738;45.772;4.804;2022-11-23T11:46:21;98420.78;;;11.28
74321;BMP280;62738;45.772;4.804;2022-11-23T11:49:05;98401.53;;;11.08
74321;BMP280;62738;45.772;4.804;2022-11-23T11:51:38;98394.50;;;11.07
74321;BMP280;62738;45.772;4.804;2022-11-23T11:59:21;98403.78;;;11.00
74321;BMP280;62738;45.772;4.804;2022-11-23T12:04:30;98386.69;;;11.16
74321;BMP280;62738;45.772;4.804;2022-11-23T12:07:04;98370.78;;;11.16
74321;BMP280;62738;45.772;4.804;2022-11-23T12:09:41;98370.81;;;11.39
74321;BMP280;62738;45.772;4.804;2022-11-23T12:12:17;98383.63;;;11.44
74321;BMP280;62738;45.772;4.804;2022-11-23T12:14:45;98372.84;;;11.39
74321;BMP280;62738;45.772;4.804;2022-11-23T12:20:26;98386.06;;;11.50
74321;BMP280;62738;45.772;4.804;2022-11-23T12:23:17;98364.31;;;11.81
74321;BMP280;62738;45.772;4.804;2022-11-23T12:37:23;98360.63;;;12.14
74321;BMP280;62738;45.772;4.804;2022-11-23T12:40:06;98362.34;;;11.96
74321;BMP280;62738;45.772;4.804;2022-11-23T12:42:47;98375.75;;;11.99
74321;BMP280;62738;45.772;4.804;2022-11-23T12:48:29;98367.31;;;11.85
74321;BMP280;62738;45.772;4.804;2022-11-23T12:59:08;98363.53;;;12.16
74321;BMP280;62738;45.772;4.804;2022-11-23T13:01:38;98361.03;;;11.85
74321;BMP280;62738;45.772;4.804;2022-11-23T13:18:50;98338.22;;;11.86
74321;BMP280;62738;45.772;4.804;2022-11-23T13:21:36;98344.25;;;11.71
74321;BMP280;62738;45.772;4.804;2022-11-23T13:24:23;98339.06;;;11.77
74321;BMP280;62738;45.772;4.804;2022-11-23T13:30:07;98394.03;;;11.67
74321;BMP280;62738;45.772;4.804;2022-11-23T13:40:40;98399.63;;;11.23
74321;BMP280;62738;45.772;4.804;2022-11-23T13:43:14;98399.56;;;11.44
74321;BMP280;62738;45.772;4.804;2022-11-23T13:45:42;98406.72;;;11.59
74321;BMP280;62738;45.772;4.804;2022-11-23T13:53:25;98416.59;;;11.73
74321;BMP280;62738;45.772;4.804;2022-11-23T13:55:57;98422.41;;;11.77
74321;BMP280;62738;45.772;4.804;2022-11-23T14:00:53;98426.50;;;11.65
74321;BMP280;62738;45.772;4.804;2022-11-23T14:03:46;98428.41;;;11.62
74321;BMP280;62738;45.772;4.804;2022-11-23T14:09:15;98446.44;;;11.73
74321;BMP280;62738;45.772;4.804;2022-11-23T14:12:00;98451.00;;;11.91
74321;BMP280;62738;45.772;4.804;2022-11-23T14:14:56;98440.53;;;12.02
74321;BMP280;62738;45.772;4.804;2022-11-23T14:22:57;98442.81;;;11.70
74321;BMP280;62738;45.772;4.804;2022-11-23T14:25:29;98461.06;;;11.73
74321;BMP280;62738;45.772;4.804;2022-11-23T14:30:42;98494.25;;;11.71
74321;BMP280;62738;45.772;4.804;2022-11-23T14:33:35;98506.97;;;11.86
74321;BMP280;62738;45.772;4.804;2022-11-23T14:39:26;98538.63;;;11.48
74321;BMP280;62738;45.772;4.804;2022-11-23T14:42:00;98563.72;;;11.71
74321;BMP280;62738;45.772;4.804;2022-11-23T14:44:29;98568.59;;;11.49
74321;BMP280;62738;45.772;4.804;2022-11-23T14:47:08;98588.88;;;11.31
74321;BMP280;62738;45.772;4.804;2022-11-23T14:49:48;98599.69;;;11.36
74321;BMP280;62738;45.772;4.804;2022-11-23T14:52:19;98585.66;;;11.56
74321;BMP280;62738;45.772;4.804;2022-11-23T14:54:50;98599.59;;;11.46
74321;BMP280;62738;45.772;4.804;2022-11-23T14:57:22;98591.00;;;11.42
74321;BMP280;62738;45.772;4.804;2022-11-23T14:59:55;98587.94;;;11.26
74321;BMP280;62738;45.772;4.804;2022-11-23T15:02:35;98594.75;;;11.14
74321;BMP280;62738;45.772;4.804;2022-11-23T15:05:39;98594.22;;;11.27
74321;BMP280;62738;45.772;4.804;2022-11-23T15:08:08;98599.69;;;11.36
74321;BMP280;62738;45.772;4.804;2022-11-23T15:13:25;98608.19;;;11.50
74321;BMP280;62738;45.772;4.804;2022-11-23T15:15:54;98608.19;;;11.50
74321;BMP280;62738;45.772;4.804;2022-11-23T15:18:31;98618.53;;;11.59
74321;BMP280;62738;45.772;4.804;2022-11-23T15:21:01;98620.88;;;11.53
74321;BMP280;62738;45.772;4.804;2022-11-23T15:23:33;98645.59;;;11.70
74321;BMP280;62738;45.772;4.804;2022-11-23T15:26:27;98640.31;;;11.53
74321;BMP280;62738;45.772;4.804;2022-11-23T15:29:35;98673.91;;;11.36
74321;BMP280;62738;45.772;4.804;2022-11-23T15:32:21;98677.50;;;11.48
74321;BMP280;62738;45.772;4.804;2022-11-23T15:35:02;98688.53;;;11.36
74321;BMP280;62738;45.772;4.804;2022-11-23T15:37:30;98710.97;;;11.29
74321;BMP280;62738;45.772;4.804;2022-11-23T15:39:58;98724.47;;;11.34
74321;BMP280;62738;45.772;4.804;2022-11-23T15:42:26;98731.31;;;11.43
74321;BMP280;62738;45.772;4.804;2022-11-23T15:44:53;98764.88;;;11.26
74321;BMP280;62738;45.772;4.804;2022-11-23T15:47:27;98770.75;;;11.20
74321;BMP280;62738;45.772;4.804;2022-11-23T15:50:01;98757.31;;;11.17
74321;BMP280;62738;45.772;4.804;2022-11-23T15:52:32;98762.56;;;11.22
74321;BMP280;62738;45.772;4.804;2022-11-23T15:55:11;98778.94;;;11.08
74321;BMP280;62738;45.772;4.804;2022-11-23T15:57:38;98793.84;;;11.13
74321;BMP280;62738;45.772;4.804;2022-11-23T16:00:07;98796.63;;;11.13
74321;BMP280;62738;45.772;4.804;2022-11-23T16:02:35;98800.41;;;11.18
74321;BMP280;62738;45.772;4.804;2022-11-23T16:07:50;98808.75;;;11.48
74321;BMP280;62738;45.772;4.804;2022-11-23T16:10:23;98812.69;;;11.45
74321;BMP280;62738;45.772;4.804;2022-11-23T16:12:56;98824.81;;;11.50
74321;BMP280;62738;45.772;4.804;2022-11-23T16:17:54;98851.72;;;11.47
74321;BMP280;62738;45.772;4.804;2022-11-23T16:20:23;98871.88;;;11.48
74321;BMP280;62738;45.772;4.804;2022-11-23T16:22:51;98867.97;;;11.72
74321;BMP280;62738;45.772;4.804;2022-11-23T16:25:27;98870.78;;;11.93
74321;BMP280;62738;45.772;4.804;2022-11-23T16:27:58;98863.16;;;11.73
74321;BMP280;62738;45.772;4.804;2022-11-23T16:30:33;98871.44;;;11.82
74321;BMP280;62738;45.772;4.804;2022-11-23T16:33:00;98880.09;;;11.77
74321;BMP280;62738;45.772;4.804;2022-11-23T16:35:27;98889.16;;;11.77
74321;BMP280;62738;45.772;4.804;2022-11-23T16:37:54;98899.31;;;11.63
74321;BMP280;62738;45.772;4.804;2022-11-23T16:40:21;98898.56;;;11.63
74321;BMP280;62738;45.772;4.804;2022-11-23T16:42:52;98905.31;;;11.60